createdAt,value
2023-05-15T00:02:22.953Z,4.70
2023-05-15T00:04:54.260Z,3.30
2023-05-15T00:07:25.271Z,3.30
2023-05-15T00:09:57.496Z,3.05
2023-05-15T00:12:28.612Z,2.60
2023-05-15T00:15:01.635Z,2.55
2023-05-15T00:17:31.898Z,3.00
2023-05-15T00:20:02.151Z,2.50
2023-05-15T00:22:32.341Z,3.05
2023-05-15T00:25:02.543Z,1.60
2023-05-15T00:27:32.735Z,1.52
2023-05-15T00:30:02.939Z,1.80
2023-05-15T00:32:33.340Z,1.23
2023-05-15T00:35:07.580Z,3.03
2023-05-15T00:37:38.381Z,2.78
2023-05-15T00:40:09.775Z,1.60
2023-05-15T00:42:40.581Z,4.53
2023-05-15T00:45:16.448Z,4.75
2023-05-15T00:47:49.049Z,3.58
2023-05-15T00:50:19.437Z,1.85
2023-05-15T00:52:50.968Z,3.05
2023-05-15T00:55:21.345Z,2.85
2023-05-15T00:57:52.539Z,1.25
2023-05-15T01:00:23.150Z,3.00
2023-05-15T01:02:53.714Z,1.63
2023-05-15T01:05:24.743Z,1.88
2023-05-15T01:08:30.254Z,2.63
2023-05-15T01:11:01.962Z,2.33
2023-05-15T01:13:32.218Z,1.98
2023-05-15T01:16:02.619Z,3.35
2023-05-15T01:18:35.497Z,2.83
2023-05-15T01:21:09.624Z,2.47
2023-05-15T01:24:10.373Z,1.70
2023-05-15T01:27:18.727Z,1.50
2023-05-15T01:30:05.361Z,1.55
2023-05-15T01:33:10.792Z,1.33
2023-05-15T01:36:09.721Z,2.70
2023-05-15T01:38:40.063Z,1.63
2023-05-15T01:41:31.306Z,4.10
2023-05-15T01:44:10.545Z,1.42
2023-05-15T01:46:49.042Z,4.13
2023-05-15T01:49:21.763Z,3.17
2023-05-15T01:51:58.303Z,1.30
2023-05-15T01:54:30.957Z,2.42
2023-05-15T01:57:02.558Z,1.65
2023-05-15T01:59:34.032Z,1.55
2023-05-15T02:02:07.360Z,2.88
2023-05-15T02:06:13.586Z,2.42
2023-05-15T02:08:32.707Z,3.22
2023-05-15T02:11:04.972Z,2.95
2023-05-15T02:13:36.332Z,2.45
2023-05-15T02:16:08.390Z,2.20
2023-05-15T02:18:39.787Z,2.47
2023-05-15T02:21:10.284Z,3.05
2023-05-15T02:23:42.608Z,1.83
2023-05-15T02:26:30.973Z,1.15
2023-05-15T02:29:10.355Z,1.05
2023-05-15T02:32:18.194Z,1.48
2023-05-15T02:35:01.181Z,1.30
2023-05-15T02:37:35.811Z,1.70
2023-05-15T02:40:08.645Z,1.80
2023-05-15T02:42:40.075Z,0.80
2023-05-15T02:45:12.689Z,1.70
2023-05-15T02:47:44.559Z,1.25
2023-05-15T02:50:15.374Z,1.23
2023-05-15T02:52:45.637Z,1.23
2023-05-15T02:55:15.934Z,1.23
2023-05-15T02:57:46.257Z,1.40
2023-05-15T03:00:17.768Z,1.38
2023-05-15T03:02:48.065Z,2.13
2023-05-15T03:05:18.297Z,2.75
2023-05-15T03:07:48.626Z,1.58
2023-05-15T03:10:19.007Z,1.08
2023-05-15T03:12:49.271Z,1.40
2023-05-15T03:15:19.969Z,1.35
2023-05-15T03:17:50.331Z,1.50
2023-05-15T03:20:20.667Z,2.22
2023-05-15T03:22:51.038Z,1.38
2023-05-15T03:25:21.455Z,0.90
2023-05-15T03:27:51.736Z,1.45
2023-05-15T03:30:22.205Z,1.00
2023-05-15T03:32:52.584Z,1.48
2023-05-15T03:35:23.240Z,1.80
2023-05-15T03:37:54.081Z,2.03
2023-05-15T03:40:24.502Z,1.90
2023-05-15T03:42:55.226Z,1.90
2023-05-15T03:45:25.944Z,1.67
2023-05-15T03:47:56.946Z,3.10
2023-05-15T03:50:27.301Z,3.50
2023-05-15T03:52:57.836Z,0.98
2023-05-15T03:55:28.287Z,3.70
2023-05-15T03:57:59.204Z,1.27
2023-05-15T04:00:29.962Z,1.20
2023-05-15T04:03:00.301Z,2.25
2023-05-15T04:05:31.933Z,2.05
2023-05-15T04:08:02.202Z,1.25
2023-05-15T04:10:34.416Z,2.03
2023-05-15T04:13:05.121Z,1.02
2023-05-15T04:15:35.431Z,1.10
2023-05-15T04:18:05.760Z,1.63
2023-05-15T04:20:36.214Z,1.63
2023-05-15T04:23:07.427Z,2.08
2023-05-15T04:25:38.159Z,2.35
2023-05-15T04:28:08.502Z,0.88
2023-05-15T04:30:38.730Z,1.80
2023-05-15T04:33:09.232Z,1.48
2023-05-15T04:35:39.566Z,1.65
2023-05-15T04:38:10.406Z,1.30
2023-05-15T04:40:41.090Z,1.08
2023-05-15T04:43:11.837Z,1.88
2023-05-15T04:45:42.578Z,1.88
2023-05-15T04:48:13.489Z,1.38
2023-05-15T04:50:45.783Z,2.25
2023-05-15T04:53:16.783Z,2.50
2023-05-15T04:55:47.466Z,1.55
2023-05-15T04:58:18.542Z,1.30
2023-05-15T05:00:48.857Z,1.67
2023-05-15T05:03:19.731Z,1.65
2023-05-15T05:05:50.501Z,1.58
2023-05-15T05:08:26.049Z,1.50
2023-05-15T05:11:03.312Z,1.70
2023-05-15T05:13:34.854Z,2.00
2023-05-15T05:16:05.600Z,1.35
2023-05-15T05:18:36.381Z,1.23
2023-05-15T05:21:07.630Z,1.67
2023-05-15T05:23:39.209Z,1.48
2023-05-15T05:26:09.831Z,3.00
2023-05-15T05:28:40.763Z,1.75
2023-05-15T05:31:11.556Z,1.60
2023-05-15T05:33:42.440Z,1.75
2023-05-15T05:36:14.186Z,1.75
2023-05-15T05:38:45.804Z,10.25
2023-05-15T05:41:17.371Z,1.70
2023-05-15T05:43:48.211Z,1.30
2023-05-15T05:46:18.892Z,1.40
2023-05-15T05:48:49.760Z,2.05
2023-05-15T05:51:20.364Z,1.55
2023-05-15T05:53:51.050Z,2.63
2023-05-15T05:56:21.790Z,1.50
2023-05-15T05:58:52.715Z,1.27
2023-05-15T06:01:23.624Z,1.27
2023-05-15T06:03:54.660Z,3.70
2023-05-15T06:06:26.857Z,1.17
2023-05-15T06:08:57.990Z,0.98
2023-05-15T06:11:28.814Z,1.17
2023-05-15T06:13:59.542Z,1.35
2023-05-15T06:16:30.229Z,1.40
2023-05-15T06:19:01.987Z,1.67
2023-05-15T06:21:32.792Z,1.77
2023-05-15T06:24:03.976Z,1.63
2023-05-15T06:26:34.705Z,1.42
2023-05-15T06:29:05.643Z,1.70
2023-05-15T06:31:36.522Z,1.00
2023-05-15T06:34:07.468Z,1.92
2023-05-15T06:36:38.089Z,2.40
2023-05-15T06:39:08.964Z,3.35
2023-05-15T06:41:41.066Z,2.25
2023-05-15T06:44:11.727Z,3.22
2023-05-15T06:46:42.587Z,3.15
2023-05-15T06:49:13.315Z,4.13
2023-05-15T06:51:44.200Z,3.60
2023-05-15T06:54:14.676Z,2.92
2023-05-15T06:56:45.334Z,3.88
2023-05-15T06:59:16.288Z,1.20
2023-05-15T07:01:47.473Z,2.88
2023-05-15T07:04:19.695Z,2.78
2023-05-15T07:06:50.670Z,1.92
2023-05-15T07:09:21.260Z,2.08
2023-05-15T07:11:52.022Z,2.90
2023-05-15T07:14:23.730Z,1.98
2023-05-15T07:16:55.082Z,2.53
2023-05-15T07:19:25.909Z,2.30
2023-05-15T07:21:56.707Z,1.75
2023-05-15T07:24:27.351Z,1.52
2023-05-15T07:26:59.505Z,3.15
2023-05-15T07:29:30.364Z,1.70
2023-05-15T07:32:01.499Z,2.38
2023-05-15T07:34:32.369Z,2.83
2023-05-15T07:37:04.396Z,2.90
2023-05-15T07:39:35.221Z,3.15
2023-05-15T07:42:06.211Z,3.50
2023-05-15T07:44:38.990Z,3.53
2023-05-15T07:47:10.956Z,3.20
2023-05-15T07:49:42.810Z,2.40
2023-05-15T07:52:13.548Z,4.38
2023-05-15T07:54:44.484Z,4.40
2023-05-15T07:57:16.263Z,2.88
2023-05-15T07:59:47.117Z,5.47
2023-05-15T08:02:17.909Z,4.78
2023-05-15T08:04:49.447Z,17.60
2023-05-15T08:07:20.270Z,47.53
2023-05-15T08:09:50.887Z,107.97
2023-05-15T08:12:25.626Z,107.72
2023-05-15T08:14:58.269Z,98.68
2023-05-15T08:17:29.335Z,57.95
2023-05-15T08:20:00.196Z,26.08
2023-05-15T08:22:32.701Z,23.38
2023-05-15T08:25:07.570Z,15.70
2023-05-15T08:27:38.677Z,14.95
2023-05-15T08:30:10.824Z,13.20
2023-05-15T08:32:41.308Z,13.32
2023-05-15T08:35:14.131Z,12.00
2023-05-15T08:37:45.650Z,11.90
2023-05-15T08:40:16.135Z,12.15
2023-05-15T08:42:55.611Z,10.63
2023-05-15T08:45:26.888Z,9.55
2023-05-15T08:48:02.015Z,10.40
2023-05-15T08:50:33.391Z,13.80
2023-05-15T08:53:11.216Z,9.18
2023-05-15T08:55:42.693Z,10.70
2023-05-15T08:58:13.784Z,8.18
2023-05-15T09:00:45.127Z,12.85
2023-05-15T09:03:21.948Z,10.32
2023-05-15T09:05:55.311Z,11.27
2023-05-15T09:08:30.805Z,10.75
2023-05-15T09:11:03.059Z,11.77
2023-05-15T09:13:33.572Z,9.48
2023-05-15T09:16:04.206Z,8.43
2023-05-15T09:18:36.535Z,9.98
2023-05-15T09:21:30.923Z,8.68
2023-05-15T09:24:30.350Z,9.77
2023-05-15T09:27:09.200Z,8.85
2023-05-15T09:29:42.970Z,12.32
2023-05-15T09:32:16.897Z,10.20
2023-05-15T09:34:48.576Z,10.25
2023-05-15T09:37:33.562Z,10.95
2023-05-15T09:40:16.213Z,9.73
2023-05-15T09:42:57.326Z,8.95
2023-05-15T09:45:29.177Z,7.97
2023-05-15T09:48:07.038Z,8.20
2023-05-15T09:50:40.856Z,6.28
2023-05-15T09:53:14.870Z,9.38
2023-05-15T09:55:53.046Z,8.70
2023-05-15T09:58:24.957Z,14.75
2023-05-15T10:00:55.623Z,10.45
2023-05-15T10:03:26.323Z,9.15
2023-05-15T10:06:06.817Z,11.45
2023-05-15T10:08:39.179Z,7.70
2023-05-15T10:11:10.122Z,8.75
2023-05-15T10:13:43.358Z,8.98
2023-05-15T10:16:17.270Z,7.95
2023-05-15T10:18:48.989Z,8.68
2023-05-15T10:21:20.554Z,11.82
2023-05-15T10:23:52.792Z,10.30
2023-05-15T10:26:52.747Z,11.45
2023-05-15T10:29:28.441Z,16.35
2023-05-15T10:32:00.892Z,12.65
2023-05-15T10:34:32.593Z,11.07
2023-05-15T10:37:04.575Z,12.32
2023-05-15T10:39:38.187Z,10.43
2023-05-15T10:42:15.219Z,11.45
2023-05-15T10:47:21.315Z,8.50
2023-05-15T10:49:52.134Z,8.10
2023-05-15T10:52:24.740Z,7.45
2023-05-15T10:54:58.719Z,11.13
2023-05-15T10:57:31.720Z,15.45
2023-05-15T11:00:04.208Z,13.82
2023-05-15T11:02:42.029Z,14.43
2023-05-15T11:05:14.483Z,12.05
2023-05-15T11:07:45.862Z,10.65
2023-05-15T11:10:45.905Z,10.02
2023-05-15T11:13:16.633Z,8.25
2023-05-15T11:15:49.723Z,7.55
2023-05-15T11:18:22.824Z,8.57
2023-05-15T11:20:56.487Z,6.82
2023-05-15T11:23:28.306Z,6.15
2023-05-15T11:26:03.814Z,8.52
2023-05-15T11:28:43.714Z,7.75
2023-05-15T11:31:16.164Z,8.45
2023-05-15T11:33:46.995Z,7.95
2023-05-15T11:36:18.052Z,6.93
2023-05-15T11:38:56.218Z,6.55
2023-05-15T11:41:37.366Z,6.35
2023-05-15T11:44:08.523Z,8.90
2023-05-15T11:46:39.650Z,5.32
2023-05-15T11:49:11.273Z,10.52
2023-05-15T11:51:45.510Z,7.07
2023-05-15T11:54:17.669Z,15.52
2023-05-15T11:56:48.301Z,15.48
2023-05-15T11:59:19.494Z,11.13
2023-05-15T12:01:50.362Z,11.02
2023-05-15T12:04:22.937Z,13.05
2023-05-15T12:06:54.561Z,12.40
2023-05-15T12:09:29.382Z,15.43
2023-05-15T12:12:00.870Z,12.13
2023-05-15T12:14:32.437Z,14.02
2023-05-15T12:17:06.654Z,15.30
2023-05-15T12:19:38.343Z,16.77
2023-05-15T12:22:10.556Z,10.50
2023-05-15T12:24:44.839Z,11.05
2023-05-15T12:27:16.383Z,9.23
2023-05-15T12:29:47.999Z,10.10
2023-05-15T12:32:18.801Z,11.82
2023-05-15T12:34:49.909Z,9.88
2023-05-15T12:37:23.681Z,9.90
2023-05-15T12:40:14.180Z,12.65
2023-05-15T12:42:46.666Z,12.73
2023-05-15T12:45:18.882Z,9.25
2023-05-15T12:47:51.730Z,11.95
2023-05-15T12:50:27.159Z,14.65
2023-05-15T12:53:04.966Z,13.15
2023-05-15T12:55:37.448Z,14.40
2023-05-15T12:58:10.278Z,15.25
2023-05-15T13:00:51.833Z,15.80
2023-05-15T13:03:24.284Z,13.05
2023-05-15T13:05:55.336Z,17.52
2023-05-15T13:08:32.361Z,17.33
2023-05-15T13:11:03.204Z,16.88
2023-05-15T13:13:50.953Z,20.73
2023-05-15T13:16:28.629Z,16.27
2023-05-15T13:19:02.266Z,18.30
2023-05-15T13:21:32.946Z,18.35
2023-05-15T13:24:03.304Z,17.50
2023-05-15T13:26:33.570Z,14.27
2023-05-15T13:29:03.871Z,16.23
2023-05-15T13:31:34.281Z,13.70
2023-05-15T13:34:04.576Z,13.90
2023-05-15T13:36:34.908Z,13.40
2023-05-15T13:39:06.042Z,13.55
2023-05-15T13:41:38.306Z,11.98
2023-05-15T13:44:08.835Z,15.77
2023-05-15T13:46:39.327Z,15.15
2023-05-15T13:49:09.949Z,15.55
2023-05-15T13:51:40.190Z,19.63
2023-05-15T13:54:10.922Z,18.38
2023-05-15T13:56:41.166Z,18.10
2023-05-15T13:59:11.519Z,17.30
2023-05-15T14:01:41.788Z,19.48
2023-05-15T14:04:12.206Z,17.67
2023-05-15T14:06:42.971Z,20.75
2023-05-15T14:09:13.658Z,17.75
2023-05-15T14:11:43.910Z,15.57
2023-05-15T14:14:14.181Z,17.65
2023-05-15T14:16:44.597Z,27.52
2023-05-15T14:19:15.033Z,18.58
2023-05-15T14:21:45.366Z,17.55
2023-05-15T14:24:15.681Z,22.25
2023-05-15T14:26:46.880Z,20.50
2023-05-15T14:29:17.193Z,19.38
2023-05-15T14:31:47.519Z,19.80
2023-05-15T14:34:18.643Z,18.65
2023-05-15T14:36:50.193Z,19.67
2023-05-15T14:39:21.311Z,19.25
2023-05-15T14:41:51.550Z,20.92
2023-05-15T14:44:22.524Z,18.27
2023-05-15T14:47:11.605Z,19.77
2023-05-15T14:49:43.345Z,18.05
2023-05-15T14:52:14.400Z,20.60
2023-05-15T14:54:47.513Z,22.38
2023-05-15T14:57:24.564Z,21.50
2023-05-15T14:59:54.853Z,18.95
2023-05-15T15:02:26.871Z,20.15
2023-05-15T15:04:57.330Z,22.70
2023-05-15T15:07:34.372Z,16.85
2023-05-15T15:12:34.356Z,16.00
2023-05-15T15:15:05.822Z,18.25
2023-05-15T15:17:36.176Z,17.20
2023-05-15T15:20:07.536Z,19.63
2023-05-15T15:22:38.637Z,18.80
2023-05-15T15:25:09.881Z,18.02
2023-05-15T15:27:40.787Z,17.48
2023-05-15T15:30:12.448Z,17.30
2023-05-15T15:32:43.369Z,17.95
2023-05-15T15:35:14.814Z,17.42
2023-05-15T15:37:45.216Z,16.63
2023-05-15T15:40:16.118Z,19.42
2023-05-15T15:42:46.612Z,15.55
2023-05-15T15:45:17.357Z,16.00
2023-05-15T15:47:47.936Z,16.95
2023-05-15T15:50:18.293Z,15.75
2023-05-15T15:52:48.677Z,15.13
2023-05-15T15:55:18.939Z,15.10
2023-05-15T15:57:49.304Z,14.05
2023-05-15T16:00:20.317Z,13.93
2023-05-15T16:02:50.669Z,13.35
2023-05-15T16:05:21.352Z,11.40
2023-05-15T16:07:51.595Z,10.65
2023-05-15T16:10:22.298Z,9.93
2023-05-15T16:12:52.895Z,14.23
2023-05-15T16:15:24.104Z,10.40
2023-05-15T16:17:56.328Z,11.10
2023-05-15T16:20:27.017Z,10.45
2023-05-15T16:22:57.414Z,7.28
2023-05-15T16:25:27.696Z,7.78
2023-05-15T16:27:58.015Z,7.80
2023-05-15T16:30:40.108Z,6.83
2023-05-15T16:33:19.197Z,10.13
2023-05-15T16:35:50.361Z,8.45
2023-05-15T16:38:38.757Z,8.70
2023-05-15T16:41:09.786Z,9.98
2023-05-15T16:43:41.177Z,7.63
2023-05-15T16:46:11.544Z,9.17
2023-05-15T16:48:42.730Z,9.27
2023-05-15T16:51:13.070Z,8.65
2023-05-15T16:53:43.307Z,9.45
2023-05-15T16:56:15.456Z,9.13
2023-05-15T16:58:46.059Z,7.40
2023-05-15T17:01:16.713Z,6.83
2023-05-15T17:03:47.254Z,7.85
2023-05-15T17:06:18.394Z,8.00
2023-05-15T17:08:48.994Z,7.33
2023-05-15T17:11:19.324Z,7.10
2023-05-15T17:13:49.669Z,10.00
2023-05-15T17:16:20.486Z,8.20
2023-05-15T17:18:50.831Z,8.63
2023-05-15T17:21:21.510Z,7.83
2023-05-15T17:23:54.997Z,7.73
2023-05-15T17:26:25.453Z,11.53
2023-05-15T17:28:55.802Z,7.20
2023-05-15T17:31:26.219Z,8.60
2023-05-15T17:33:56.606Z,8.37
2023-05-15T17:36:27.238Z,6.20
2023-05-15T17:38:57.878Z,6.50
2023-05-15T17:41:28.363Z,7.57
2023-05-15T17:43:59.121Z,8.03
2023-05-15T17:46:29.458Z,10.20
2023-05-15T17:48:59.778Z,7.97
2023-05-15T17:51:30.499Z,8.03
2023-05-15T17:54:00.777Z,6.70
2023-05-15T17:56:31.106Z,6.80
2023-05-15T17:59:01.744Z,7.63
2023-05-15T18:01:32.536Z,7.17
2023-05-15T18:04:03.498Z,8.37
2023-05-15T18:06:36.964Z,9.27
2023-05-15T18:09:08.853Z,8.33
2023-05-15T18:11:39.104Z,8.37
2023-05-15T18:14:09.665Z,8.00
2023-05-15T18:16:40.153Z,7.87
2023-05-15T18:19:10.714Z,7.97
2023-05-15T18:21:41.664Z,9.97
2023-05-15T18:24:12.240Z,8.73
2023-05-15T18:26:42.858Z,8.30
2023-05-15T18:29:13.227Z,9.60
2023-05-15T18:31:44.392Z,10.07
2023-05-15T18:34:15.078Z,8.70
2023-05-15T18:36:45.442Z,12.03
2023-05-15T18:39:17.278Z,8.03
2023-05-15T18:41:47.597Z,9.47
2023-05-15T18:44:17.814Z,8.83
2023-05-15T18:46:48.111Z,10.60
2023-05-15T18:49:19.696Z,7.10
2023-05-15T18:51:51.502Z,10.53
2023-05-15T18:54:21.690Z,12.80
2023-05-15T18:56:52.506Z,10.63
2023-05-15T18:59:23.051Z,10.53
2023-05-15T19:01:55.471Z,8.90
2023-05-15T19:04:25.922Z,10.17
2023-05-15T19:06:56.290Z,9.83
2023-05-15T19:09:26.526Z,10.50
2023-05-15T19:11:56.930Z,10.30
2023-05-15T19:14:27.348Z,11.37
2023-05-15T19:16:57.773Z,10.87
2023-05-15T19:19:28.869Z,10.63
2023-05-15T19:21:59.702Z,11.70
2023-05-15T19:24:32.719Z,13.00
2023-05-15T19:27:04.003Z,10.63
2023-05-15T19:29:35.446Z,10.80
2023-05-15T19:32:05.799Z,14.47
2023-05-15T19:34:36.156Z,12.80
2023-05-15T19:37:07.341Z,9.00
2023-05-15T19:39:37.657Z,9.30
2023-05-15T19:42:08.304Z,21.33
2023-05-15T19:44:38.555Z,14.53
2023-05-15T19:47:10.834Z,13.10
2023-05-15T19:49:41.169Z,10.27
2023-05-15T19:52:11.405Z,13.53
2023-05-15T19:54:41.609Z,16.80
2023-05-15T19:57:11.849Z,12.93
2023-05-15T19:59:42.057Z,9.17
2023-05-15T20:02:12.885Z,9.70
2023-05-15T20:04:43.166Z,10.00
2023-05-15T20:07:14.620Z,9.57
2023-05-15T20:09:45.436Z,7.67
2023-05-15T20:12:15.897Z,7.07
2023-05-15T20:14:51.691Z,9.77
2023-05-15T20:17:22.213Z,8.50
2023-05-15T20:19:55.550Z,8.23
2023-05-15T20:22:26.165Z,7.87
2023-05-15T20:24:56.379Z,8.00
2023-05-15T20:27:27.022Z,8.00
2023-05-15T20:29:57.317Z,6.97
2023-05-15T20:32:27.738Z,7.50
2023-05-15T20:34:58.266Z,6.13
2023-05-15T20:37:32.018Z,6.33
2023-05-15T20:40:02.545Z,7.77
2023-05-15T20:42:34.451Z,8.40
2023-05-15T20:45:08.230Z,7.73
2023-05-15T20:47:39.032Z,9.10
2023-05-15T20:50:09.892Z,10.07
2023-05-15T20:52:40.382Z,9.97
2023-05-15T20:55:21.129Z,9.73
2023-05-15T20:57:52.601Z,11.63
2023-05-15T21:00:24.524Z,11.70
2023-05-15T21:02:55.464Z,9.40
2023-05-15T21:05:26.487Z,10.50
2023-05-15T21:07:57.177Z,10.30
2023-05-15T21:10:27.954Z,7.17
2023-05-15T21:12:59.547Z,10.20
2023-05-15T21:15:29.940Z,10.53
2023-05-15T21:18:00.259Z,12.03
2023-05-15T21:20:31.920Z,11.90
2023-05-15T21:23:03.053Z,11.13
2023-05-15T21:25:33.488Z,11.03
2023-05-15T21:28:03.706Z,10.30
2023-05-15T21:30:34.458Z,9.43
2023-05-15T21:33:05.238Z,13.33
2023-05-15T21:35:35.616Z,11.67
2023-05-15T21:38:06.457Z,12.17
2023-05-15T21:40:38.023Z,11.67
2023-05-15T21:43:09.626Z,9.93
2023-05-15T21:45:40.821Z,10.43
2023-05-15T21:48:11.729Z,10.27
2023-05-15T21:50:42.824Z,8.53
2023-05-15T21:53:13.487Z,8.70
2023-05-15T21:55:44.241Z,8.60
2023-05-15T21:58:26.212Z,6.93
2023-05-15T22:00:58.268Z,10.90
2023-05-15T22:03:29.058Z,5.90
2023-05-15T22:05:59.953Z,8.80
2023-05-15T22:08:41.752Z,6.60
2023-05-15T22:11:12.839Z,7.00
2023-05-15T22:13:43.635Z,8.03
2023-05-15T22:16:14.612Z,6.60
2023-05-15T22:18:47.271Z,5.53
2023-05-15T22:21:19.067Z,4.70
2023-05-15T22:23:50.316Z,8.60
2023-05-15T22:26:21.082Z,7.53
2023-05-15T22:28:57.023Z,7.43
2023-05-15T22:31:30.453Z,6.57
2023-05-15T22:34:01.611Z,6.57
2023-05-15T22:36:35.755Z,6.00
2023-05-15T22:39:07.878Z,7.13
2023-05-15T22:41:38.657Z,7.10
2023-05-15T22:44:09.619Z,11.27
2023-05-15T22:46:40.598Z,8.97
2023-05-15T22:49:12.146Z,6.63
2023-05-15T22:51:43.161Z,6.95
2023-05-15T22:54:13.803Z,6.10
2023-05-15T22:56:44.459Z,6.30
2023-05-15T22:59:14.843Z,7.22
2023-05-15T23:01:46.367Z,6.90
2023-05-15T23:04:16.946Z,5.97
2023-05-15T23:06:47.770Z,7.85
2023-05-15T23:09:18.070Z,6.85
2023-05-15T23:11:48.786Z,6.40
2023-05-15T23:14:19.189Z,7.10
2023-05-15T23:16:50.815Z,6.20
2023-05-15T23:19:21.694Z,8.18
2023-05-15T23:21:52.037Z,9.15
2023-05-15T23:24:22.824Z,7.88
2023-05-15T23:26:53.808Z,6.20
2023-05-15T23:29:24.469Z,9.38
2023-05-15T23:31:55.406Z,5.30
2023-05-15T23:34:29.676Z,8.10
2023-05-15T23:37:00.629Z,8.13
2023-05-15T23:39:31.395Z,8.57
2023-05-15T23:42:03.127Z,6.07
2023-05-15T23:44:33.833Z,6.60
2023-05-15T23:47:04.373Z,6.90
2023-05-15T23:49:35.642Z,7.35
2023-05-15T23:52:06.806Z,6.25
2023-05-15T23:54:37.541Z,7.18
2023-05-15T23:57:08.488Z,6.38
2023-05-15T23:59:39.240Z,6.90
